createdAt,value
2022-09-12T00:01:20.342Z,51436.28
2022-09-12T00:03:47.973Z,51432.31
2022-09-12T00:06:23.467Z,51452.19
2022-09-12T00:08:52.205Z,51454.19
2022-09-12T00:11:19.414Z,51428.34
2022-09-12T00:13:46.610Z,51466.13
2022-09-12T00:16:24.271Z,51424.38
2022-09-12T00:18:52.765Z,51460.16
2022-09-12T00:21:21.530Z,51444.25
2022-09-12T00:23:49.520Z,51468.09
2022-09-12T00:26:17.525Z,51462.16
2022-09-12T00:28:45.572Z,51450.22
2022-09-12T00:31:17.531Z,51440.28
2022-09-12T00:33:45.173Z,51440.28
2022-09-12T00:36:20.551Z,51448.22
2022-09-12T00:38:49.428Z,51434.31
2022-09-12T00:41:29.994Z,51424.38
2022-09-12T00:44:01.394Z,51438.28
2022-09-12T00:46:49.780Z,51456.19
2022-09-12T00:49:36.765Z,51464.13
2022-09-12T00:52:15.011Z,51456.19
2022-09-12T00:54:49.297Z,51434.31
2022-09-12T00:57:18.175Z,51436.28
2022-09-12T00:59:54.582Z,51436.28
2022-09-12T01:02:22.120Z,51412.44
2022-09-12T01:04:49.975Z,51424.38
2022-09-12T01:07:17.368Z,51424.38
2022-09-12T01:09:46.053Z,51426.34
2022-09-12T01:12:15.622Z,51414.44
2022-09-12T01:14:42.912Z,51422.38
2022-09-12T01:17:16.874Z,51424.38
2022-09-12T01:19:56.002Z,51434.31
2022-09-12T01:22:54.517Z,51452.19
2022-09-12T01:26:02.691Z,51398.53
2022-09-12T01:29:07.302Z,51414.44
2022-09-12T01:31:59.873Z,51438.28
2022-09-12T01:34:51.540Z,51434.31
2022-09-12T01:37:35.672Z,51458.16
2022-09-12T01:40:16.681Z,51410.44
2022-09-12T01:43:08.249Z,51416.41
2022-09-12T01:45:38.943Z,51418.41
2022-09-12T01:48:13.394Z,51432.31
2022-09-12T01:50:54.470Z,51454.19
2022-09-12T01:53:28.306Z,51426.34
2022-09-12T01:56:11.097Z,51454.19
2022-09-12T01:58:51.477Z,51450.22
2022-09-12T02:01:32.024Z,51440.28
2022-09-12T02:04:12.008Z,51476.06
2022-09-12T02:06:50.108Z,51416.41
2022-09-12T02:09:32.240Z,51396.53
2022-09-12T02:12:01.645Z,51416.41
2022-09-12T02:14:43.321Z,51434.31
2022-09-12T02:17:15.134Z,51452.19
2022-09-12T02:19:51.547Z,51460.16
2022-09-12T02:22:22.086Z,51418.41
2022-09-12T02:24:54.697Z,51432.31
2022-09-12T02:27:24.751Z,51470.09
2022-09-12T02:29:52.351Z,51440.28
2022-09-12T02:32:32.607Z,51434.31
2022-09-12T02:35:21.596Z,51426.34
2022-09-12T02:38:07.752Z,51426.34
2022-09-12T02:40:36.194Z,51436.28
2022-09-12T02:43:05.844Z,51432.31
2022-09-12T02:45:35.691Z,51434.31
2022-09-12T02:48:16.143Z,51444.25
2022-09-12T02:50:43.688Z,51440.28
2022-09-12T02:53:11.404Z,51426.34
2022-09-12T02:55:40.577Z,51428.34
2022-09-12T02:58:14.693Z,51432.31
2022-09-12T03:00:54.142Z,51444.25
2022-09-12T03:04:07.995Z,51430.34
2022-09-12T03:06:53.589Z,51416.41
2022-09-12T03:10:16.130Z,51422.38
2022-09-12T03:13:04.527Z,51432.31
2022-09-12T03:16:02.874Z,51416.41
2022-09-12T03:18:51.452Z,51450.22
2022-09-12T03:21:50.367Z,51424.38
2022-09-12T03:24:35.229Z,51398.53
2022-09-12T03:27:27.629Z,51430.34
2022-09-12T03:29:56.141Z,51424.38
2022-09-12T03:32:46.464Z,51412.44
2022-09-12T03:35:18.821Z,51430.34
2022-09-12T03:37:50.214Z,51428.34
2022-09-12T03:40:17.831Z,51404.50
2022-09-12T03:42:44.949Z,51432.31
2022-09-12T03:45:12.760Z,51404.50
2022-09-12T03:47:40.702Z,51400.50
2022-09-12T03:50:08.714Z,51408.47
2022-09-12T03:52:36.052Z,51430.34
2022-09-12T03:55:03.504Z,51444.25
2022-09-12T03:57:30.638Z,51412.44
2022-09-12T03:59:57.904Z,51440.28
2022-09-12T04:02:25.155Z,51406.47
2022-09-12T04:04:52.360Z,51408.47
2022-09-12T04:07:19.471Z,51428.34
2022-09-12T04:09:46.704Z,51428.34
2022-09-12T04:12:14.175Z,51448.22
2022-09-12T04:14:41.528Z,51438.28
2022-09-12T04:17:08.985Z,51448.22
2022-09-12T04:19:36.114Z,51440.28
2022-09-12T04:22:03.626Z,51426.34
2022-09-12T04:24:30.816Z,51412.44
2022-09-12T04:26:58.117Z,51430.34
2022-09-12T04:29:25.498Z,51414.44
2022-09-12T04:31:52.709Z,51462.16
2022-09-12T04:34:19.858Z,51432.31
2022-09-12T04:36:47.003Z,51418.41
2022-09-12T04:39:14.058Z,51440.28
2022-09-12T04:41:42.103Z,51432.31
2022-09-12T04:44:14.406Z,51404.50
2022-09-12T04:46:45.713Z,51426.34
2022-09-12T04:49:16.270Z,51442.25
2022-09-12T04:51:43.635Z,51444.25
2022-09-12T04:54:17.833Z,51428.34
2022-09-12T04:56:49.015Z,51428.34
2022-09-12T04:59:19.369Z,51442.25
2022-09-12T05:01:46.765Z,51416.41
2022-09-12T05:04:14.704Z,51448.22
2022-09-12T05:06:43.108Z,51472.09
2022-09-12T05:09:14.142Z,51422.38
2022-09-12T05:14:32.624Z,51460.16
2022-09-12T05:17:01.824Z,51478.03
2022-09-12T05:19:30.895Z,51428.34
2022-09-12T05:21:59.104Z,51446.25
2022-09-12T05:24:26.679Z,51444.25
2022-09-12T05:26:53.971Z,51432.31
2022-09-12T05:29:21.020Z,51460.16
2022-09-12T05:31:52.306Z,51478.03
2022-09-12T05:34:21.259Z,51468.09
2022-09-12T05:36:49.194Z,51460.16
2022-09-12T05:39:16.617Z,51444.25
2022-09-12T05:41:43.688Z,51440.28
2022-09-12T05:44:14.675Z,51432.31
2022-09-12T05:46:45.583Z,51454.19
2022-09-12T05:49:14.653Z,51432.31
2022-09-12T05:51:45.049Z,51478.03
2022-09-12T05:54:15.796Z,51412.44
2022-09-12T05:56:44.663Z,51420.41
2022-09-12T05:59:16.108Z,51434.31
2022-09-12T06:01:43.751Z,51456.19
2022-09-12T06:04:11.404Z,51442.25
2022-09-12T06:06:47.341Z,51456.19
2022-09-12T06:09:16.385Z,51470.09
2022-09-12T06:11:45.723Z,51454.19
2022-09-12T06:14:16.277Z,51458.16
2022-09-12T06:16:43.598Z,51454.19
2022-09-12T06:19:21.757Z,51456.19
2022-09-12T06:21:49.828Z,51495.94
2022-09-12T06:24:18.408Z,51488.00
2022-09-12T06:26:47.256Z,51456.19
2022-09-12T06:29:14.887Z,51491.97
2022-09-12T06:31:43.679Z,51468.09
2022-09-12T06:34:14.210Z,51480.03
2022-09-12T06:36:45.110Z,51493.94
2022-09-12T06:39:19.413Z,51456.19
2022-09-12T06:41:48.413Z,51488.00
2022-09-12T06:44:21.038Z,51474.06
2022-09-12T06:46:49.095Z,51482.03
2022-09-12T06:49:17.653Z,51456.19
2022-09-12T06:51:45.053Z,51486.00
2022-09-12T06:54:17.261Z,51450.22
2022-09-12T06:56:44.938Z,51476.06
2022-09-12T06:59:12.539Z,51458.16
2022-09-12T07:01:41.870Z,51484.00
2022-09-12T07:04:09.454Z,51460.16
2022-09-12T07:06:40.621Z,51456.19
2022-09-12T07:09:12.094Z,51464.13
2022-09-12T07:11:41.705Z,51474.06
2022-09-12T07:14:12.084Z,51460.16
2022-09-12T07:16:39.235Z,51464.13
2022-09-12T07:19:08.328Z,51474.06
2022-09-12T07:21:40.462Z,51484.00
2022-09-12T07:24:10.126Z,51476.06
2022-09-12T07:26:37.913Z,51470.09
2022-09-12T07:29:25.535Z,51503.91
2022-09-12T07:31:52.368Z,51480.03
2022-09-12T07:34:19.435Z,51491.97
2022-09-12T07:36:47.540Z,51474.06
2022-09-12T07:39:14.792Z,51466.13
2022-09-12T07:41:41.980Z,51470.09
2022-09-12T07:44:09.133Z,51505.88
2022-09-12T07:46:36.221Z,51525.75
2022-09-12T07:49:03.866Z,51474.06
2022-09-12T07:51:31.851Z,51489.97
2022-09-12T07:53:59.495Z,51505.88
2022-09-12T07:56:32.736Z,51517.81
2022-09-12T07:59:01.987Z,51525.75
2022-09-12T08:01:29.281Z,51539.69
2022-09-12T08:04:00.231Z,51525.75
2022-09-12T08:06:32.228Z,51523.78
2022-09-12T08:08:59.984Z,51543.66
2022-09-12T08:11:29.028Z,51523.78
2022-09-12T08:13:57.935Z,51559.56
2022-09-12T08:16:29.722Z,51551.63
2022-09-12T08:18:57.344Z,51533.72
2022-09-12T08:21:30.630Z,51575.47
2022-09-12T08:24:04.347Z,51533.72
2022-09-12T08:26:33.635Z,51527.75
2022-09-12T08:29:01.411Z,51523.78
2022-09-12T08:31:28.851Z,51527.75
2022-09-12T08:33:58.708Z,51521.78
2022-09-12T08:36:28.280Z,51523.78
2022-09-12T08:39:00.253Z,51533.72
2022-09-12T08:41:36.058Z,51555.59
2022-09-12T08:44:39.954Z,51555.59
2022-09-12T08:47:29.573Z,51553.59
2022-09-12T08:50:09.654Z,51553.59
2022-09-12T08:52:49.059Z,51589.38
2022-09-12T08:55:32.716Z,51571.50
2022-09-12T08:58:02.224Z,51599.31
2022-09-12T09:00:47.520Z,51599.31
2022-09-12T09:03:46.901Z,51561.56
2022-09-12T09:06:53.174Z,51559.56
2022-09-12T09:09:51.479Z,51573.47
2022-09-12T09:12:33.136Z,51567.50
2022-09-12T09:15:12.254Z,51587.41
2022-09-12T09:17:58.338Z,51591.38
2022-09-12T09:20:31.367Z,51599.31
2022-09-12T09:23:15.467Z,51595.34
2022-09-12T09:26:05.560Z,51585.41
2022-09-12T09:28:54.209Z,51603.31
2022-09-12T09:31:25.307Z,51591.38
2022-09-12T09:33:57.500Z,51613.25
2022-09-12T09:36:45.817Z,51587.41
2022-09-12T09:39:28.633Z,51609.28
2022-09-12T09:42:46.829Z,51599.31
2022-09-12T09:45:18.906Z,51591.38
2022-09-12T09:48:16.020Z,51607.28
2022-09-12T09:50:49.471Z,51549.63
2022-09-12T09:53:51.340Z,51579.44
2022-09-12T09:56:40.886Z,51605.28
2022-09-12T09:59:26.818Z,51589.38
2022-09-12T10:02:24.371Z,51569.50
2022-09-12T10:04:57.888Z,51587.41
2022-09-12T10:07:26.221Z,51601.31
2022-09-12T10:10:17.232Z,51674.88
2022-09-12T10:12:44.582Z,51641.09
2022-09-12T10:15:30.554Z,51621.19
2022-09-12T10:17:58.898Z,51623.19
2022-09-12T10:20:36.126Z,51595.34
2022-09-12T10:23:17.978Z,51609.28
2022-09-12T10:26:09.761Z,51577.47
2022-09-12T10:29:11.568Z,51579.44
2022-09-12T10:31:55.691Z,51557.56
2022-09-12T10:34:43.043Z,51547.63
2022-09-12T10:37:24.806Z,51545.66
2022-09-12T10:39:57.267Z,51561.56
2022-09-12T10:42:48.161Z,51555.59
2022-09-12T10:45:36.986Z,51605.28
2022-09-12T10:48:31.888Z,51623.19
2022-09-12T10:51:00.688Z,51603.31
2022-09-12T10:53:34.694Z,51607.28
2022-09-12T10:56:12.240Z,51581.44
2022-09-12T10:59:20.405Z,51595.34
2022-09-12T11:02:36.586Z,51589.38
2022-09-12T11:05:22.979Z,51605.28
2022-09-12T11:08:22.232Z,51577.47
2022-09-12T11:11:34.743Z,51641.09
2022-09-12T11:14:39.602Z,51645.06
2022-09-12T11:17:48.298Z,51613.25
2022-09-12T11:20:55.079Z,51607.28
2022-09-12T11:23:56.020Z,51619.22
2022-09-12T11:27:05.527Z,51581.44
2022-09-12T11:29:45.764Z,51633.13
2022-09-12T11:32:35.466Z,51690.78
2022-09-12T11:35:27.497Z,51744.47
2022-09-12T11:38:41.774Z,51963.19
2022-09-12T11:41:19.232Z,52128.22
2022-09-12T11:44:03.658Z,52321.13
2022-09-12T11:46:39.920Z,52345.00
2022-09-12T11:49:12.381Z,52426.53
2022-09-12T11:52:04.754Z,52462.31
2022-09-12T11:54:57.823Z,52673.13
2022-09-12T11:57:49.506Z,52870.03
2022-09-12T12:00:44.260Z,52911.81
2022-09-12T12:03:40.566Z,53182.31
2022-09-12T12:06:21.976Z,52923.75
2022-09-12T12:08:50.692Z,52553.81
2022-09-12T12:11:36.114Z,52193.84
2022-09-12T12:14:08.156Z,51979.09
2022-09-12T12:16:38.979Z,51891.59
2022-09-12T12:19:15.242Z,51871.72
2022-09-12T12:21:44.390Z,51893.59
2022-09-12T12:24:20.749Z,51901.56
2022-09-12T12:26:53.328Z,52030.78
2022-09-12T12:29:20.329Z,51935.34
2022-09-12T12:31:59.594Z,51847.88
2022-09-12T12:34:38.131Z,51808.09
2022-09-12T12:37:23.092Z,51827.97
2022-09-12T12:39:51.091Z,51802.13
2022-09-12T12:42:36.270Z,51784.22
2022-09-12T12:45:09.420Z,51718.63
2022-09-12T12:47:36.430Z,51720.59
2022-09-12T12:50:27.204Z,51873.72
2022-09-12T12:53:07.174Z,52010.91
2022-09-12T12:55:42.135Z,52323.13
2022-09-12T12:58:32.775Z,52655.22
2022-09-12T13:01:22.903Z,52872.03
2022-09-12T13:04:17.081Z,53100.75
2022-09-12T13:06:47.416Z,53245.97
2022-09-12T13:09:37.680Z,53506.56
2022-09-12T13:12:09.247Z,52836.22
2022-09-12T13:15:03.112Z,52394.72
2022-09-12T13:17:44.768Z,52152.09
2022-09-12T13:20:28.281Z,52048.69
2022-09-12T13:22:56.279Z,52259.47
2022-09-12T13:25:33.470Z,52337.03
2022-09-12T13:28:23.146Z,52223.69
2022-09-12T13:31:23.137Z,52175.97
2022-09-12T13:33:58.283Z,52156.06
2022-09-12T13:36:49.645Z,52255.50
2022-09-12T13:39:28.748Z,52476.25
2022-09-12T13:42:35.907Z,52758.66
2022-09-12T13:45:16.166Z,52879.97
2022-09-12T13:47:49.214Z,52878.00
2022-09-12T13:50:50.306Z,52728.81
2022-09-12T13:53:22.515Z,52603.53
2022-09-12T13:56:00.274Z,52663.19
2022-09-12T13:58:27.261Z,52661.19
2022-09-12T14:01:16.432Z,52653.25
2022-09-12T14:04:10.594Z,52615.47
2022-09-12T14:06:52.675Z,52657.22
2022-09-12T14:09:32.665Z,52740.75
2022-09-12T14:12:00.040Z,52611.47
2022-09-12T14:14:32.536Z,52589.59
2022-09-12T14:17:00.594Z,52510.06
2022-09-12T14:19:29.277Z,52432.50
2022-09-12T14:22:02.196Z,52440.44
2022-09-12T14:24:29.829Z,52374.81
2022-09-12T14:26:57.156Z,52341.00
2022-09-12T14:29:25.344Z,52303.22
2022-09-12T14:32:05.840Z,52261.47
2022-09-12T14:34:32.918Z,52092.44
2022-09-12T14:37:00.088Z,52000.97
2022-09-12T14:39:37.988Z,52068.56
2022-09-12T14:42:22.403Z,52046.72
2022-09-12T14:45:16.061Z,52034.78
2022-09-12T14:47:49.682Z,51951.25
2022-09-12T14:50:27.839Z,51909.50
2022-09-12T14:53:19.828Z,51857.81
2022-09-12T14:56:10.952Z,51897.56
2022-09-12T14:58:40.505Z,51953.25
2022-09-12T15:01:07.988Z,51935.34
2022-09-12T15:03:51.848Z,51917.47
2022-09-12T15:06:33.235Z,51887.63
2022-09-12T15:09:06.441Z,51873.72
2022-09-12T15:11:34.241Z,51887.63
2022-09-12T15:14:13.362Z,51859.78
2022-09-12T15:16:40.737Z,51853.81
2022-09-12T15:19:07.906Z,51853.81
2022-09-12T15:21:35.133Z,51827.97
2022-09-12T15:24:02.887Z,51863.78
2022-09-12T15:26:31.691Z,51786.22
2022-09-12T15:28:58.875Z,51794.19
2022-09-12T15:31:31.631Z,51816.06
2022-09-12T15:34:02.106Z,51774.28
2022-09-12T15:36:29.588Z,51808.09
2022-09-12T15:38:57.045Z,51847.88
2022-09-12T15:41:38.158Z,51772.31
2022-09-12T15:44:12.618Z,51770.31
2022-09-12T15:46:55.536Z,51726.56
2022-09-12T15:49:22.633Z,51754.41
2022-09-12T15:51:49.679Z,51762.38
2022-09-12T15:54:18.358Z,51740.50
2022-09-12T15:56:45.985Z,51690.78
2022-09-12T15:59:13.670Z,51702.72
2022-09-12T16:01:40.813Z,51653.00
2022-09-12T16:04:25.891Z,51666.94
2022-09-12T16:06:54.632Z,51633.13
2022-09-12T16:09:23.201Z,51647.03
2022-09-12T16:11:50.983Z,51639.09
2022-09-12T16:14:19.813Z,51621.19
2022-09-12T16:16:59.230Z,51615.22
2022-09-12T16:19:26.434Z,51635.13
2022-09-12T16:21:53.558Z,51573.47
2022-09-12T16:24:20.610Z,51611.25
2022-09-12T16:26:47.763Z,51585.41
2022-09-12T16:29:18.029Z,51579.44
2022-09-12T16:31:45.377Z,51575.47
2022-09-12T16:34:12.550Z,51579.44
2022-09-12T16:36:39.634Z,51571.50
2022-09-12T16:39:07.223Z,51579.44
2022-09-12T16:41:34.378Z,51591.38
2022-09-12T16:44:01.802Z,51561.56
2022-09-12T16:46:29.122Z,51549.63
2022-09-12T16:48:58.517Z,51555.59
2022-09-12T16:51:38.303Z,51529.75
2022-09-12T16:54:05.490Z,51553.59
2022-09-12T16:56:32.646Z,51535.69
2022-09-12T16:58:59.725Z,51543.66
2022-09-12T17:01:27.314Z,51539.69
2022-09-12T17:03:57.471Z,51515.81
2022-09-12T17:06:26.347Z,51555.59
2022-09-12T17:08:58.189Z,51515.81
2022-09-12T17:11:30.913Z,51519.81
2022-09-12T17:14:04.929Z,51529.75
2022-09-12T17:16:36.131Z,51495.94
2022-09-12T17:19:04.579Z,51486.00
2022-09-12T17:21:32.341Z,51466.13
2022-09-12T17:23:59.558Z,51509.84
2022-09-12T17:26:27.005Z,51480.03
2022-09-12T17:28:54.150Z,51474.06
2022-09-12T17:31:21.302Z,51462.16
2022-09-12T17:33:48.586Z,51497.94
2022-09-12T17:36:18.115Z,51468.09
2022-09-12T17:38:46.601Z,51497.94
2022-09-12T17:41:20.952Z,51456.19
2022-09-12T17:43:56.290Z,51474.06
2022-09-12T17:46:36.346Z,51468.09
2022-09-12T17:49:17.470Z,51474.06
2022-09-12T17:51:45.434Z,51448.22
2022-09-12T17:54:18.827Z,51478.03
2022-09-12T17:56:47.350Z,51466.13
2022-09-12T17:59:18.780Z,51456.19
2022-09-12T18:02:05.403Z,51456.19
2022-09-12T18:04:32.938Z,51434.31
2022-09-12T18:07:00.526Z,51452.19
2022-09-12T18:09:28.353Z,51470.09
2022-09-12T18:11:56.031Z,51450.22
2022-09-12T18:14:23.968Z,51466.13
2022-09-12T18:16:51.154Z,51438.28
2022-09-12T18:19:18.380Z,51440.28
2022-09-12T18:21:46.019Z,51448.22
2022-09-12T18:24:13.710Z,51422.38
2022-09-12T18:26:40.842Z,51456.19
2022-09-12T18:29:07.980Z,51434.31
2022-09-12T18:31:35.712Z,51430.34
2022-09-12T18:34:02.885Z,51434.31
2022-09-12T18:36:30.866Z,51430.34
2022-09-12T18:38:59.663Z,51426.34
2022-09-12T18:41:29.043Z,51414.44
2022-09-12T18:44:01.540Z,51434.31
2022-09-12T18:46:31.449Z,51434.31
2022-09-12T18:49:00.212Z,51420.41
2022-09-12T18:51:31.723Z,51428.34
2022-09-12T18:54:11.333Z,51422.38
2022-09-12T18:56:39.506Z,51394.53
2022-09-12T18:59:07.565Z,51422.38
2022-09-12T19:01:37.851Z,51400.50
2022-09-12T19:04:07.712Z,51418.41
2022-09-12T19:06:39.067Z,51390.56
2022-09-12T19:09:08.332Z,51406.47
2022-09-12T19:11:38.486Z,51410.44
2022-09-12T19:14:07.586Z,51400.50
2022-09-12T19:16:35.720Z,51390.56
2022-09-12T19:19:04.110Z,51386.59
2022-09-12T19:21:33.026Z,51408.47
2022-09-12T19:24:04.437Z,51390.56
2022-09-12T19:26:32.655Z,51366.72
2022-09-12T19:29:02.525Z,51402.50
2022-09-12T19:31:31.027Z,51400.50
2022-09-12T19:34:06.997Z,51390.56
2022-09-12T19:36:50.401Z,51400.50
2022-09-12T19:39:19.750Z,51396.53
2022-09-12T19:41:47.968Z,51376.66
2022-09-12T19:44:15.065Z,51410.44
2022-09-12T19:46:42.333Z,51366.72
2022-09-12T19:49:12.035Z,51348.81
2022-09-12T19:51:39.416Z,51356.78
2022-09-12T19:54:07.800Z,51372.69
2022-09-12T19:56:35.053Z,51372.69
2022-09-12T19:59:02.101Z,51376.66
2022-09-12T20:01:29.371Z,51376.66
2022-09-12T20:03:58.197Z,51374.66
2022-09-12T20:06:26.519Z,51358.75
2022-09-12T20:08:54.427Z,51358.75
2022-09-12T20:11:23.958Z,51390.56
2022-09-12T20:13:51.317Z,51386.59
2022-09-12T20:16:29.036Z,51364.72
2022-09-12T20:19:00.143Z,51372.69
2022-09-12T20:21:31.714Z,51356.78
2022-09-12T20:24:10.471Z,51360.75
2022-09-12T20:26:37.784Z,51370.69
2022-09-12T20:29:07.194Z,51342.84
2022-09-12T20:31:36.499Z,51380.63
2022-09-12T20:34:04.924Z,51352.78
2022-09-12T20:36:32.012Z,51352.78
2022-09-12T20:39:01.382Z,51370.69
2022-09-12T20:41:31.916Z,51352.78
2022-09-12T20:43:59.198Z,51328.94
2022-09-12T20:46:28.285Z,51340.88
2022-09-12T20:48:55.764Z,51366.72
2022-09-12T20:51:23.221Z,51346.84
2022-09-12T20:53:54.601Z,51366.72
2022-09-12T20:56:23.343Z,51356.78
2022-09-12T20:58:51.448Z,51324.97
2022-09-12T21:01:18.732Z,51352.78
2022-09-12T21:03:46.894Z,51338.88
2022-09-12T21:06:19.262Z,51350.81
2022-09-12T21:08:48.891Z,51324.97
2022-09-12T21:11:17.507Z,51352.78
2022-09-12T21:13:44.569Z,51364.72
2022-09-12T21:16:18.478Z,51346.84
2022-09-12T21:18:46.170Z,51348.81
2022-09-12T21:21:15.759Z,51358.75
2022-09-12T21:23:43.022Z,51344.84
2022-09-12T21:26:10.580Z,51350.81
2022-09-12T21:28:37.676Z,51332.91
2022-09-12T21:31:04.982Z,51330.94
2022-09-12T21:33:32.203Z,51346.84
2022-09-12T21:36:07.296Z,51344.84
2022-09-12T21:38:34.658Z,51344.84
2022-09-12T21:41:14.516Z,51348.81
2022-09-12T21:43:42.784Z,51321.00
2022-09-12T21:46:10.672Z,51319.00
2022-09-12T21:48:37.899Z,51336.91
2022-09-12T21:51:05.462Z,51348.81
2022-09-12T21:53:32.521Z,51336.91
2022-09-12T21:56:08.624Z,51326.94
2022-09-12T21:58:37.215Z,51340.88
2022-09-12T22:01:05.910Z,51326.94
2022-09-12T22:03:33.113Z,51342.84
2022-09-12T22:06:02.704Z,51360.75
2022-09-12T22:08:32.058Z,51350.81
2022-09-12T22:11:02.159Z,51311.06
2022-09-12T22:13:32.194Z,51330.94
2022-09-12T22:16:03.140Z,51326.94
2022-09-12T22:18:34.322Z,51326.94
2022-09-12T22:21:06.870Z,51346.84
2022-09-12T22:23:52.718Z,51350.81
2022-09-12T22:26:20.452Z,51354.78
2022-09-12T22:28:47.871Z,51334.91
2022-09-12T22:31:16.176Z,51338.88
2022-09-12T22:33:43.793Z,51352.78
2022-09-12T22:36:11.484Z,51342.84
2022-09-12T22:38:38.685Z,51348.81
2022-09-12T22:41:09.238Z,51332.91
2022-09-12T22:43:37.798Z,51336.91
2022-09-12T22:46:10.273Z,51342.84
2022-09-12T22:48:38.183Z,51328.94
2022-09-12T22:51:06.164Z,51324.97
2022-09-12T22:53:34.614Z,51328.94
2022-09-12T22:56:02.532Z,51330.94
2022-09-12T22:58:29.663Z,51319.00
2022-09-12T23:00:56.857Z,51388.59
2022-09-12T23:03:24.318Z,51321.00
2022-09-12T23:05:52.064Z,51321.00
2022-09-12T23:08:19.400Z,51322.97
2022-09-12T23:10:46.859Z,51342.84
2022-09-12T23:13:14.056Z,51358.75
2022-09-12T23:15:41.224Z,51326.94
2022-09-12T23:18:08.564Z,51321.00
2022-09-12T23:20:35.685Z,51352.78
2022-09-12T23:23:02.912Z,51330.94
2022-09-12T23:25:30.997Z,51336.91
2022-09-12T23:27:58.689Z,51332.91
2022-09-12T23:30:25.815Z,51336.91
2022-09-12T23:32:53.023Z,51346.84
2022-09-12T23:35:20.261Z,51346.84
2022-09-12T23:37:47.670Z,51313.03
2022-09-12T23:40:15.065Z,51315.03
2022-09-12T23:42:42.270Z,51315.03
2022-09-12T23:45:10.381Z,51305.09
2022-09-12T23:47:37.589Z,51299.13
2022-09-12T23:50:05.169Z,51307.06
2022-09-12T23:52:32.339Z,51319.00
2022-09-12T23:54:59.450Z,51319.00
2022-09-12T23:57:26.542Z,51344.84
2022-09-12T23:59:53.825Z,51307.06
